Time;durP1;ratioP1;P1;durP2;ratioP2;P2;SDS_P1;SDS_P2;PMS_P1;PMS_P2;Temp;Humidity;BMP_temperature;BMP_pressure;BME280_temperature;BME280_humidity;BME280_pressure;Samples;Min_cycle;Max_cycle;Signal;HPM_P1;HPM_P2
2022/05/07 00:00:16;;;;;;;2.67;1.80;;;10.90;99.90;;;;;;5099243;28;20027;-89
2022/05/07 00:02:42;;;;;;;2.20;1.60;;;10.90;99.90;;;;;;5099174;28;20106;-89
2022/05/07 00:05:08;;;;;;;3.30;1.80;;;10.90;99.90;;;;;;5099140;28;20027;-89
2022/05/07 00:07:33;;;;;;;2.60;1.70;;;11.00;99.90;;;;;;5098984;28;20031;-89
2022/05/07 00:09:59;;;;;;;3.00;1.80;;;11.00;99.90;;;;;;5117456;28;20024;-88
2022/05/07 00:12:25;;;;;;;2.70;1.80;;;11.00;99.90;;;;;;5098980;28;20460;-88
2022/05/07 00:14:50;;;;;;;3.65;1.95;;;11.00;99.90;;;;;;5098882;28;20020;-88
2022/05/07 00:20:01;;;;;;;4.18;2.15;;;11.00;99.90;;;;;;5117492;28;20035;-88
2022/05/07 00:22:27;;;;;;;2.80;1.88;;;11.00;99.90;;;;;;5098826;28;20395;-88
2022/05/07 00:24:52;;;;;;;2.42;1.70;;;11.00;99.90;;;;;;5098737;28;20027;-88
2022/05/07 00:27:18;;;;;;;2.33;1.60;;;11.00;99.90;;;;;;5116962;28;20031;-88
2022/05/07 00:29:44;;;;;;;2.75;1.92;;;11.10;99.90;;;;;;5098683;28;20440;-88
2022/05/07 00:32:09;;;;;;;2.65;2.00;;;11.00;99.90;;;;;;5098668;28;20019;-88
2022/05/07 00:34:36;;;;;;;2.55;1.95;;;11.00;99.90;;;;;;5115555;28;20033;-88
2022/05/07 00:37:01;;;;;;;2.55;1.75;;;11.00;99.90;;;;;;5098430;28;20373;-88
2022/05/07 00:39:27;;;;;;;3.50;1.67;;;10.90;99.90;;;;;;5098450;28;20034;-89
2022/05/07 00:41:53;;;;;;;2.45;1.63;;;11.00;99.90;;;;;;5098413;28;20028;-89
2022/05/07 00:44:21;;;;;;;2.25;1.65;;;10.90;99.90;;;;;;5116851;28;20024;-89
2022/05/07 00:46:49;;;;;;;2.67;1.80;;;10.90;99.90;;;;;;5115243;28;20092;-89
2022/05/07 00:49:15;;;;;;;2.47;1.75;;;10.90;99.90;;;;;;5098270;28;20026;-89
2022/05/07 00:51:41;;;;;;;2.28;1.63;;;10.90;99.90;;;;;;5098255;28;20422;-89
2022/05/07 00:54:08;;;;;;;2.70;1.88;;;10.90;99.90;;;;;;5116476;28;20084;-88
2022/05/07 00:56:36;;;;;;;2.47;1.52;;;10.90;99.90;;;;;;5098104;28;20030;-89
2022/05/07 00:59:03;;;;;;;2.28;1.60;;;10.90;99.90;;;;;;5097342;28;20414;-89
2022/05/07 01:01:29;;;;;;;2.42;1.80;;;10.90;99.90;;;;;;5098510;28;20468;-88
2022/05/07 01:03:55;;;;;;;2.40;1.60;;;10.90;99.90;;;;;;5104325;28;20038;-87
2022/05/07 01:06:21;;;;;;;2.08;1.40;;;10.90;99.90;;;;;;5116217;28;20023;-88
2022/05/07 01:08:48;;;;;;;2.15;1.50;;;10.90;99.90;;;;;;5116199;28;20428;-87
2022/05/07 01:11:18;;;;;;;2.20;1.50;;;10.90;99.90;;;;;;5097859;28;20110;-88
2022/05/07 01:13:45;;;;;;;2.60;1.60;;;10.90;99.90;;;;;;5097835;28;20482;-88
2022/05/07 01:16:12;;;;;;;2.90;1.58;;;11.00;99.90;;;;;;5097680;28;20024;-87
2022/05/07 01:18:39;;;;;;;2.22;1.50;;;11.00;99.90;;;;;;5097508;28;20027;-87
2022/05/07 01:21:12;;;;;;;2.20;1.50;;;11.00;99.90;;;;;;5097664;28;20077;-87
2022/05/07 01:23:40;;;;;;;2.30;1.55;;;11.00;99.90;;;;;;5097662;28;20058;-87
2022/05/07 01:26:06;;;;;;;2.40;1.70;;;11.00;99.90;;;;;;5097516;28;20038;-87
2022/05/07 01:28:31;;;;;;;2.30;1.50;;;10.90;99.90;;;;;;5115669;28;20020;-88
2022/05/07 01:30:57;;;;;;;3.05;1.95;;;10.90;99.90;;;;;;5115601;28;20028;-89
2022/05/07 01:33:23;;;;;;;3.25;2.08;;;10.80;99.90;;;;;;5115698;28;20065;-87
2022/05/07 01:35:49;;;;;;;2.80;1.77;;;10.80;99.90;;;;;;5097417;28;20488;-87
2022/05/07 01:38:14;;;;;;;2.97;1.92;;;10.70;99.90;;;;;;5097340;28;20472;-88
2022/05/07 01:40:40;;;;;;;2.13;1.60;;;10.70;99.90;;;;;;5097291;28;20034;-87
2022/05/07 01:43:05;;;;;;;2.50;1.60;;;10.70;99.90;;;;;;5097201;28;20035;-88
2022/05/07 01:45:31;;;;;;;3.20;2.22;;;10.70;99.90;;;;;;5115303;28;20030;-88
2022/05/07 01:48:09;;;;;;;2.30;1.63;;;10.60;99.90;;;;;;5097033;28;20092;-87
2022/05/07 01:50:35;;;;;;;2.42;1.77;;;10.60;99.90;;;;;;5115707;28;20024;-88
2022/05/07 01:53:01;;;;;;;2.90;1.85;;;10.60;99.90;;;;;;5097030;28;20058;-88
2022/05/07 01:55:27;;;;;;;2.50;1.60;;;10.70;99.90;;;;;;5097217;28;20062;-88
2022/05/07 01:57:53;;;;;;;3.17;1.80;;;10.70;99.90;;;;;;5097031;28;20429;-89
2022/05/07 02:00:19;;;;;;;2.13;1.50;;;10.70;99.90;;;;;;5096942;28;20031;-88
2022/05/07 02:02:45;;;;;;;2.65;1.73;;;10.70;99.90;;;;;;5096829;28;20023;-88
2022/05/07 02:05:10;;;;;;;2.40;1.60;;;10.70;99.90;;;;;;5096713;28;20475;-88
2022/05/07 02:07:36;;;;;;;2.70;1.90;;;10.70;99.90;;;;;;5096758;28;20023;-88
2022/05/07 02:10:02;;;;;;;3.38;1.80;;;10.70;99.90;;;;;;5096061;28;20027;-88
2022/05/07 02:12:29;;;;;;;2.40;1.60;;;10.70;99.90;;;;;;5096359;28;20027;-89
2022/05/07 02:14:55;;;;;;;2.60;1.88;;;10.60;99.90;;;;;;5096626;28;20072;-89
2022/05/07 02:17:20;;;;;;;3.38;1.92;;;10.70;99.90;;;;;;5096529;28;20020;-89
2022/05/07 02:19:46;;;;;;;2.22;1.60;;;10.60;99.90;;;;;;5114800;28;20035;-89
2022/05/07 02:22:12;;;;;;;2.13;1.35;;;10.60;99.90;;;;;;5114703;28;20102;-89
2022/05/07 02:24:37;;;;;;;3.22;1.40;;;10.60;99.90;;;;;;5096451;28;20387;-89
2022/05/07 02:27:03;;;;;;;2.70;1.25;;;10.60;99.90;;;;;;5096367;28;20123;-89
2022/05/07 02:29:29;;;;;;;1.85;1.23;;;10.60;99.90;;;;;;5096298;28;20027;-89
2022/05/07 02:32:04;;;;;;;2.10;1.50;;;10.70;99.90;;;;;;5096394;28;20072;-89
2022/05/07 02:34:31;;;;;;;2.50;1.60;;;10.70;99.90;;;;;;5096304;28;20475;-89
2022/05/07 02:36:58;;;;;;;3.13;1.42;;;10.70;99.90;;;;;;5096195;28;20062;-89
2022/05/07 02:39:23;;;;;;;1.60;1.27;;;10.80;99.90;;;;;;5114514;28;20031;-89
2022/05/07 02:44:33;;;;;;;3.03;1.95;;;10.80;99.90;;;;;;5114924;28;20080;-89
2022/05/07 02:46:58;;;;;;;2.50;1.80;;;10.70;99.90;;;;;;5095947;28;20023;-89
2022/05/07 02:49:25;;;;;;;2.35;1.90;;;10.70;99.90;;;;;;5114178;28;20019;-89
2022/05/07 02:51:51;;;;;;;2.22;1.70;;;10.70;99.90;;;;;;5096033;28;20022;-88
2022/05/07 02:54:17;;;;;;;2.70;1.90;;;10.70;99.90;;;;;;5114454;28;20027;-88
2022/05/07 02:56:43;;;;;;;2.25;1.35;;;10.70;99.90;;;;;;5096239;28;20031;-88
2022/05/07 02:59:08;;;;;;;1.75;1.27;;;10.70;99.90;;;;;;5095934;28;20023;-88
2022/05/07 03:01:34;;;;;;;2.40;1.35;;;10.70;99.90;;;;;;5114150;28;20030;-88
2022/05/07 03:04:00;;;;;;;1.83;1.40;;;10.70;99.90;;;;;;5113988;28;20019;-88
2022/05/07 03:06:25;;;;;;;1.92;1.40;;;10.70;99.90;;;;;;5095847;28;20031;-88
2022/05/07 03:08:52;;;;;;;2.30;1.40;;;10.70;99.90;;;;;;5095800;28;20098;-88
2022/05/07 03:11:18;;;;;;;2.15;1.50;;;10.60;99.90;;;;;;5113945;28;20475;-88
2022/05/07 03:13:44;;;;;;;2.30;1.52;;;10.60;99.90;;;;;;5114238;28;20102;-88
2022/05/07 03:16:10;;;;;;;1.90;1.30;;;10.60;99.90;;;;;;5113852;28;20103;-88
2022/05/07 03:18:35;;;;;;;1.65;1.05;;;10.70;99.90;;;;;;5095732;28;20048;-88
2022/05/07 03:21:02;;;;;;;2.33;1.38;;;10.70;99.90;;;;;;5095514;28;20024;-89
2022/05/07 03:23:27;;;;;;;2.30;1.52;;;10.70;99.90;;;;;;5095358;28;20024;-89
2022/05/07 03:25:53;;;;;;;3.42;1.55;;;10.70;99.90;;;;;;5095753;28;20028;-89
2022/05/07 03:28:19;;;;;;;2.47;1.63;;;10.70;99.90;;;;;;5113820;28;20024;-89
2022/05/07 03:30:45;;;;;;;1.92;1.30;;;10.60;99.90;;;;;;5095532;28;20027;-89
2022/05/07 03:33:10;;;;;;;2.30;1.27;;;10.60;99.90;;;;;;5095587;28;20157;-89
2022/05/07 03:35:36;;;;;;;2.13;1.50;;;10.70;99.90;;;;;;5095471;28;20028;-89
2022/05/07 03:38:02;;;;;;;2.03;1.45;;;10.70;99.90;;;;;;5095524;28;20395;-89
2022/05/07 03:40:28;;;;;;;1.90;1.27;;;10.70;99.90;;;;;;5095440;28;20517;-88
2022/05/07 03:42:54;;;;;;;2.22;1.70;;;10.70;99.90;;;;;;5095354;28;20042;-88
2022/05/07 03:45:20;;;;;;;2.55;1.40;;;10.70;99.90;;;;;;5113627;28;20023;-88
2022/05/07 03:47:46;;;;;;;2.58;1.40;;;10.70;99.90;;;;;;5095378;28;20081;-89
2022/05/07 03:50:12;;;;;;;2.47;1.40;;;10.70;99.90;;;;;;5095480;28;20028;-88
2022/05/07 03:55:22;;;;;;;3.55;1.40;;;10.60;99.90;;;;;;5113546;28;20035;-88
2022/05/07 03:57:48;;;;;;;2.92;2.13;;;10.60;99.90;;;;;;5113508;28;20028;-89
2022/05/07 04:00:14;;;;;;;2.58;1.77;;;10.60;99.90;;;;;;5095266;28;20372;-89
2022/05/07 04:02:40;;;;;;;2.50;1.75;;;10.50;99.90;;;;;;5095284;28;20047;-88
2022/05/07 04:05:06;;;;;;;2.70;1.80;;;10.50;99.90;;;;;;5095178;28;20028;-88
2022/05/07 04:07:32;;;;;;;2.88;1.80;;;10.50;99.90;;;;;;5113384;28;20028;-88
2022/05/07 04:09:58;;;;;;;3.17;2.22;;;10.50;99.90;;;;;;5113689;28;20023;-88
2022/05/07 04:12:23;;;;;;;4.70;2.83;;;10.50;99.90;;;;;;5113496;28;20024;-88
2022/05/07 04:14:49;;;;;;;4.68;2.50;;;10.50;99.90;;;;;;5095143;28;20474;-88
2022/05/07 04:17:15;;;;;;;3.03;1.80;;;10.50;99.90;;;;;;5095103;28;20020;-88
2022/05/07 04:19:41;;;;;;;4.18;1.80;;;10.60;99.90;;;;;;5095347;28;20464;-88
2022/05/07 04:22:07;;;;;;;2.25;1.60;;;10.60;99.90;;;;;;5095034;28;20035;-88
2022/05/07 04:24:33;;;;;;;1.55;1.13;;;10.60;99.90;;;;;;5095144;28;20567;-88
2022/05/07 04:27:00;;;;;;;1.90;1.13;;;10.60;99.90;;;;;;5095025;28;20111;-88
2022/05/07 04:29:26;;;;;;;2.00;1.38;;;10.60;99.90;;;;;;5095253;28;20026;-84
2022/05/07 04:31:51;;;;;;;1.83;1.23;;;10.60;99.90;;;;;;5094914;28;20027;-83
2022/05/07 04:34:19;;;;;;;2.17;1.38;;;10.60;99.90;;;;;;5114196;28;20106;-82
2022/05/07 04:36:45;;;;;;;1.95;1.27;;;10.70;99.90;;;;;;5117182;28;20024;-83
2022/05/07 04:39:11;;;;;;;1.65;1.00;;;10.70;99.90;;;;;;5117243;28;20027;-84
2022/05/07 04:41:36;;;;;;;1.95;1.30;;;10.70;99.90;;;;;;5117514;28;20111;-83
2022/05/07 04:44:02;;;;;;;1.92;1.25;;;10.70;99.90;;;;;;5117335;28;20536;-83
2022/05/07 04:46:28;;;;;;;2.33;1.40;;;10.70;99.90;;;;;;5098811;28;20456;-83
2022/05/07 04:48:53;;;;;;;2.78;1.48;;;10.70;99.90;;;;;;5116662;28;20027;-83
2022/05/07 04:51:19;;;;;;;3.00;2.40;;;10.70;99.90;;;;;;5116584;28;20050;-83
2022/05/07 04:53:44;;;;;;;3.20;2.38;;;10.70;99.90;;;;;;5098481;28;20026;-84
2022/05/07 04:56:10;;;;;;;3.75;2.85;;;10.70;99.90;;;;;;5098440;28;20024;-84
2022/05/07 04:58:36;;;;;;;3.15;2.60;;;10.70;99.90;;;;;;5098625;28;20027;-85
2022/05/07 05:01:02;;;;;;;3.47;2.47;;;10.70;99.90;;;;;;5115397;28;20148;-85
2022/05/07 05:03:27;;;;;;;4.82;2.58;;;10.70;99.90;;;;;;5116624;28;20054;-85
2022/05/07 05:05:53;;;;;;;4.60;3.15;;;10.80;99.90;;;;;;5097106;28;20108;-85
2022/05/07 05:08:19;;;;;;;4.40;3.00;;;10.80;99.90;;;;;;5098845;28;20031;-85
2022/05/07 05:10:45;;;;;;;3.50;2.50;;;10.80;99.90;;;;;;5098556;28;20055;-85
2022/05/07 05:13:11;;;;;;;4.15;2.80;;;10.80;99.90;;;;;;5099065;28;20027;-85
2022/05/07 05:15:37;;;;;;;3.83;2.50;;;10.80;99.90;;;;;;5098788;28;20023;-85
2022/05/07 05:18:03;;;;;;;2.50;1.90;;;10.90;99.90;;;;;;5098994;28;20026;-85
2022/05/07 05:20:29;;;;;;;2.80;1.90;;;10.90;99.90;;;;;;5116079;28;20019;-85
2022/05/07 05:22:55;;;;;;;2.47;1.77;;;10.90;99.90;;;;;;5097777;28;20020;-85
2022/05/07 05:25:20;;;;;;;2.75;1.60;;;10.90;99.90;;;;;;5116212;28;20111;-85
2022/05/07 05:27:47;;;;;;;2.50;1.70;;;10.90;99.90;;;;;;5116394;28;20034;-85
2022/05/07 05:30:13;;;;;;;2.67;1.60;;;10.90;99.90;;;;;;5115829;28;20479;-86
2022/05/07 05:32:39;;;;;;;1.95;1.38;;;10.90;99.90;;;;;;5115852;28;20050;-86
2022/05/07 05:35:05;;;;;;;2.30;1.50;;;10.90;99.90;;;;;;5097754;28;20024;-84
2022/05/07 05:37:31;;;;;;;3.25;1.40;;;10.90;99.90;;;;;;5097563;28;20023;-84
2022/05/07 05:39:57;;;;;;;2.15;1.15;;;11.00;99.90;;;;;;5115883;28;20019;-84
2022/05/07 05:42:24;;;;;;;2.80;1.90;;;11.00;99.90;;;;;;5097271;28;20391;-84
2022/05/07 05:44:50;;;;;;;3.03;1.85;;;11.10;99.90;;;;;;5097297;28;20020;-84
2022/05/07 05:47:15;;;;;;;2.90;1.90;;;11.10;99.90;;;;;;5115533;28;20487;-85
2022/05/07 05:49:41;;;;;;;3.30;2.60;;;11.10;99.90;;;;;;5097076;28;20365;-85
2022/05/07 05:52:08;;;;;;;2.40;1.65;;;11.10;99.90;;;;;;5115451;28;20015;-85
2022/05/07 05:54:35;;;;;;;3.05;1.80;;;11.10;99.90;;;;;;5115911;28;20027;-85
2022/05/07 05:57:01;;;;;;;2.80;1.60;;;11.20;99.90;;;;;;5097029;28;20027;-85
2022/05/07 05:59:27;;;;;;;2.78;1.75;;;11.10;99.90;;;;;;5115199;28;20393;-85
2022/05/07 06:01:53;;;;;;;1.95;1.20;;;11.20;99.90;;;;;;5096949;28;20028;-85
2022/05/07 06:04:19;;;;;;;1.98;1.48;;;11.20;99.90;;;;;;5097315;28;20031;-85
2022/05/07 06:06:45;;;;;;;2.40;1.60;;;11.30;99.90;;;;;;5115886;28;20417;-85
2022/05/07 06:09:11;;;;;;;2.30;1.40;;;11.30;99.90;;;;;;5097020;28;20472;-85
2022/05/07 06:11:36;;;;;;;2.40;1.35;;;11.30;99.90;;;;;;5097223;28;20035;-85
2022/05/07 06:14:02;;;;;;;2.08;1.30;;;11.30;99.90;;;;;;5097248;28;20047;-84
2022/05/07 06:16:29;;;;;;;2.25;1.45;;;11.30;99.90;;;;;;5116214;28;20478;-85
2022/05/07 06:18:55;;;;;;;2.30;1.50;;;11.40;99.90;;;;;;5096808;28;20476;-84
2022/05/07 06:21:20;;;;;;;2.38;1.33;;;11.40;99.90;;;;;;5115532;28;20034;-84
2022/05/07 06:23:46;;;;;;;2.08;1.50;;;11.40;99.90;;;;;;5096973;28;20027;-84
2022/05/07 06:28:56;;;;;;;2.30;1.50;;;11.50;99.90;;;;;;5115508;28;20379;-84
2022/05/07 06:31:21;;;;;;;2.55;1.30;;;11.40;99.90;;;;;;5096870;28;20024;-84
2022/05/07 06:33:47;;;;;;;1.98;1.05;;;11.40;99.90;;;;;;5096880;28;20028;-85
2022/05/07 06:36:13;;;;;;;2.33;1.70;;;11.50;99.90;;;;;;5096727;28;20026;-84
2022/05/07 06:38:39;;;;;;;2.78;1.88;;;11.50;99.90;;;;;;5115485;28;20038;-84
2022/05/07 06:41:06;;;;;;;2.65;1.70;;;11.50;99.90;;;;;;5096389;28;20055;-85
2022/05/07 06:43:33;;;;;;;2.22;1.65;;;11.40;99.90;;;;;;5096343;28;20039;-85
2022/05/07 06:46:00;;;;;;;2.60;1.80;;;11.50;99.90;;;;;;5114514;28;20028;-85
2022/05/07 06:48:26;;;;;;;2.45;1.48;;;11.50;99.90;;;;;;5114409;28;20031;-85
2022/05/07 06:50:53;;;;;;;2.20;1.30;;;11.50;99.90;;;;;;5096452;28;20030;-85
2022/05/07 06:53:19;;;;;;;1.67;1.15;;;11.60;99.90;;;;;;5114547;28;20024;-85
2022/05/07 06:58:41;;;;;;;1.90;1.30;;;11.70;99.90;;;;;;5104967;28;20111;-85
2022/05/07 07:01:08;;;;;;;3.13;1.63;;;11.70;99.90;;;;;;5096035;28;20157;-85
2022/05/07 07:03:33;;;;;;;3.40;2.42;;;11.80;99.90;;;;;;5114358;28;20028;-85
2022/05/07 07:06:00;;;;;;;3.30;2.33;;;11.80;99.90;;;;;;5114195;28;20073;-85
2022/05/07 07:08:29;;;;;;;4.00;3.05;;;11.80;99.90;;;;;;5114149;28;20476;-85
2022/05/07 07:10:55;;;;;;;5.43;3.33;;;11.80;99.90;;;;;;5095937;28;20019;-85
2022/05/07 07:13:21;;;;;;;3.92;3.08;;;11.80;99.90;;;;;;5095854;28;20027;-85
2022/05/07 07:15:47;;;;;;;4.10;2.80;;;11.80;99.90;;;;;;5114202;28;20479;-85
2022/05/07 07:18:13;;;;;;;3.38;2.67;;;11.90;99.90;;;;;;5095724;28;20074;-84
2022/05/07 07:20:43;;;;;;;5.85;3.70;;;12.00;99.90;;;;;;5095729;28;20116;-85
2022/05/07 07:23:13;;;;;;;3.92;3.10;;;11.90;99.90;;;;;;5114037;28;20023;-85
2022/05/07 07:25:41;;;;;;;4.47;3.22;;;11.90;99.90;;;;;;5114017;28;20052;-85
2022/05/07 07:28:08;;;;;;;4.93;3.55;;;11.90;99.90;;;;;;5115122;28;20037;-85
2022/05/07 07:30:34;;;;;;;5.10;3.42;;;11.90;99.90;;;;;;5095848;28;20047;-85
2022/05/07 07:33:00;;;;;;;4.40;3.22;;;12.00;99.90;;;;;;5095516;28;20051;-85
2022/05/07 07:35:26;;;;;;;10.52;5.10;;;12.00;99.90;;;;;;5113802;28;20080;-85
2022/05/07 07:37:52;;;;;;;6.45;4.60;;;12.00;99.90;;;;;;5095709;28;20422;-85
2022/05/07 07:40:18;;;;;;;5.65;4.22;;;12.00;99.90;;;;;;5095420;28;20077;-85
2022/05/07 07:42:44;;;;;;;6.20;3.95;;;12.00;99.90;;;;;;5095328;28;20027;-85
2022/05/07 07:48:07;;;;;;;6.30;3.85;;;12.00;99.90;;;;;;5113934;28;20057;-85
2022/05/07 07:50:35;;;;;;;5.90;4.15;;;12.10;99.90;;;;;;5095446;28;20400;-85
2022/05/07 07:53:04;;;;;;;5.35;3.80;;;12.10;99.90;;;;;;5095294;28;20022;-85
2022/05/07 07:55:30;;;;;;;5.93;4.20;;;12.10;99.90;;;;;;5113386;28;20023;-85
2022/05/07 07:57:58;;;;;;;4.78;3.45;;;12.10;99.90;;;;;;5113939;28;20490;-85
2022/05/07 08:00:25;;;;;;;5.50;3.85;;;12.10;99.90;;;;;;5095259;28;20028;-85
2022/05/07 08:02:54;;;;;;;5.28;4.05;;;12.20;99.90;;;;;;5114088;28;20024;-85
2022/05/07 08:05:22;;;;;;;5.35;4.05;;;12.20;99.90;;;;;;5113672;28;20464;-85
2022/05/07 08:13:20;;;;;;;4.53;3.00;;;12.40;99.90;;;;;;5097049;28;20055;-85
2022/05/07 08:15:46;;;;;;;4.43;3.20;;;12.40;99.90;;;;;;5117263;28;20016;-85
2022/05/07 08:18:13;;;;;;;5.18;3.78;;;12.50;99.90;;;;;;5098827;28;20023;-85
2022/05/07 08:20:41;;;;;;;5.35;3.58;;;12.50;99.90;;;;;;5117039;28;20024;-85
2022/05/07 08:23:07;;;;;;;5.75;3.60;;;12.60;99.90;;;;;;5098629;28;20019;-85
2022/05/07 08:35:45;;;;;;;4.68;3.15;;;12.80;99.90;;;;;;5115503;28;20536;-85
2022/05/07 08:38:10;;;;;;;4.85;3.17;;;12.80;99.90;;;;;;5098584;28;20020;-85
2022/05/07 08:40:37;;;;;;;4.03;3.20;;;12.80;99.90;;;;;;5109990;27;20031;-85
2022/05/07 08:43:04;;;;;;;4.05;3.10;;;12.80;99.90;;;;;;5135477;27;20062;-85
2022/05/07 08:45:31;;;;;;;3.13;2.53;;;12.70;99.90;;;;;;5117802;27;20023;-85
2022/05/07 08:47:56;;;;;;;4.10;3.15;;;12.70;99.90;;;;;;5118233;27;20019;-85
2022/05/07 08:50:22;;;;;;;3.60;2.65;;;12.70;99.90;;;;;;5136674;27;20096;-85
2022/05/07 08:52:49;;;;;;;3.67;2.45;;;12.70;99.90;;;;;;5118425;27;20026;-85
2022/05/07 08:55:17;;;;;;;4.03;2.70;;;12.70;99.90;;;;;;5117874;27;20045;-85
2022/05/07 08:57:46;;;;;;;3.20;2.28;;;12.80;99.90;;;;;;5118671;27;20038;-85
2022/05/07 09:00:13;;;;;;;3.35;2.10;;;12.80;99.90;;;;;;5118541;27;20015;-85
2022/05/07 09:02:49;;;;;;;3.00;2.10;;;12.90;99.90;;;;;;5118477;27;20495;-85
2022/05/07 09:05:18;;;;;;;3.00;2.20;;;12.90;99.90;;;;;;5118499;27;20038;-84
2022/05/07 09:08:00;;;;;;;3.17;2.15;;;12.90;99.90;;;;;;5137238;27;20520;-85
2022/05/07 09:10:33;;;;;;;2.90;2.13;;;12.90;99.90;;;;;;5137031;27;20019;-85
2022/05/07 09:13:09;;;;;;;2.72;2.03;;;12.80;99.90;;;;;;5118402;27;20031;-83
2022/05/07 09:15:51;;;;;;;3.10;2.10;;;12.80;99.90;;;;;;5118401;27;20027;-83
2022/05/07 09:18:19;;;;;;;3.15;2.20;;;12.90;99.90;;;;;;5137051;27;20029;-83
2022/05/07 09:20:56;;;;;;;3.85;2.42;;;12.90;99.90;;;;;;5136088;27;20022;-83
2022/05/07 09:23:23;;;;;;;3.78;2.53;;;13.00;99.90;;;;;;5137022;27;20127;-83
2022/05/07 09:25:49;;;;;;;3.40;2.50;;;13.00;99.90;;;;;;5136726;27;20019;-83
2022/05/07 09:28:28;;;;;;;3.83;2.70;;;13.00;99.90;;;;;;5136783;27;20149;-82
2022/05/07 09:30:57;;;;;;;3.88;2.28;;;12.90;99.90;;;;;;5118057;27;20379;-82
2022/05/07 09:33:36;;;;;;;6.85;4.60;;;12.90;99.90;;;;;;5136858;27;20482;-82
2022/05/07 09:36:12;;;;;;;7.72;5.43;;;12.80;99.90;;;;;;5136515;27;20050;-82
2022/05/07 09:38:38;;;;;;;4.93;3.50;;;12.80;99.90;;;;;;5117939;27;20083;-82
2022/05/07 09:41:04;;;;;;;3.92;2.92;;;12.80;99.90;;;;;;5136572;27;20038;-82
2022/05/07 09:43:31;;;;;;;4.35;3.20;;;12.90;99.90;;;;;;5136174;27;20043;-82
2022/05/07 09:45:57;;;;;;;6.00;3.45;;;12.90;99.90;;;;;;5136364;27;20083;-82
2022/05/07 09:48:24;;;;;;;4.85;3.00;;;12.90;99.90;;;;;;5137355;27;20068;-82
2022/05/07 09:50:50;;;;;;;4.47;3.22;;;13.00;99.90;;;;;;5136468;27;20099;-82
2022/05/07 09:58:51;;;;;;;4.82;3.38;;;12.90;99.90;;;;;;5136406;27;20128;-82
2022/05/07 10:01:20;;;;;;;5.43;3.58;;;12.90;99.90;;;;;;5117409;27;20019;-83
2022/05/07 10:03:56;;;;;;;6.13;3.75;;;12.90;99.90;;;;;;5135783;27;20092;-82
2022/05/07 10:06:47;;;;;;;7.13;4.30;;;12.90;99.90;;;;;;5135716;27;20098;-83
2022/05/07 10:09:40;;;;;;;2.93;2.00;;;12.90;99.90;;;;;;5135756;27;20031;-83
2022/05/07 10:12:08;;;;;;;3.47;2.28;;;12.90;99.90;;;;;;5135973;27;20342;-83
2022/05/07 10:14:33;;;;;;;2.33;1.63;;;12.90;99.90;;;;;;5117152;27;20015;-83
2022/05/07 10:17:13;;;;;;;3.25;1.98;;;12.90;99.90;;;;;;5117109;27;20019;-83
2022/05/07 10:19:44;;;;;;;3.83;1.77;;;12.90;99.90;;;;;;5135418;27;20030;-83
2022/05/07 10:22:24;;;;;;;2.15;1.55;;;13.00;99.90;;;;;;5135543;27;20065;-83
2022/05/07 10:25:11;;;;;;;4.55;2.15;;;13.00;99.90;;;;;;5135368;27;20046;-82
2022/05/07 10:27:44;;;;;;;3.15;1.90;;;13.00;99.90;;;;;;5116730;27;20395;-83
2022/05/07 10:30:19;;;;;;;3.58;2.50;;;13.00;99.90;;;;;;5118194;27;20415;-83
2022/05/07 10:32:44;;;;;;;3.13;2.83;;;13.10;99.90;;;;;;5104219;28;20376;-83
2022/05/07 10:35:11;;;;;;;2.60;2.10;;;13.10;99.90;;;;;;5114646;28;20023;-83
2022/05/07 10:37:41;;;;;;;2.33;1.60;;;13.20;99.90;;;;;;5096233;28;20468;-83
2022/05/07 10:40:16;;;;;;;2.60;1.80;;;13.20;99.90;;;;;;5096381;28;20023;-83
2022/05/07 10:42:42;;;;;;;2.92;1.42;;;13.20;99.90;;;;;;5096282;28;20031;-82
2022/05/07 10:45:22;;;;;;;2.63;1.75;;;13.30;99.90;;;;;;5096027;28;20588;-82
2022/05/07 10:47:54;;;;;;;2.38;1.45;;;13.30;99.90;;;;;;5096092;28;20110;-83
2022/05/07 10:50:23;;;;;;;3.00;1.60;;;13.30;99.90;;;;;;5114212;28;20125;-83
2022/05/07 10:52:56;;;;;;;2.50;1.60;;;13.40;99.90;;;;;;5095924;28;20020;-82
2022/05/07 10:55:26;;;;;;;3.85;1.77;;;13.50;99.90;;;;;;5114478;28;20031;-82
2022/05/07 10:57:56;;;;;;;3.10;1.73;;;13.50;99.90;;;;;;5095852;28;20023;-82
2022/05/07 11:00:23;;;;;;;4.25;2.67;;;13.60;99.90;;;;;;5125352;27;20382;-82
2022/05/07 11:02:55;;;;;;;3.67;2.13;;;13.60;99.90;;;;;;5126589;27;20468;-83
2022/05/07 11:05:32;;;;;;;3.25;1.83;;;13.70;99.90;;;;;;5109018;28;20028;-83
2022/05/07 11:08:00;;;;;;;3.88;2.53;;;13.70;99.90;;;;;;5095639;28;20023;-83
2022/05/07 11:10:26;;;;;;;2.75;1.90;;;13.70;99.90;;;;;;5113990;28;20020;-82
2022/05/07 11:12:52;;;;;;;2.80;1.85;;;13.80;99.90;;;;;;5114028;28;20030;-82
2022/05/07 11:15:24;;;;;;;3.05;1.95;;;13.70;99.90;;;;;;5114322;28;20055;-82
2022/05/07 11:17:51;;;;;;;4.07;2.50;;;13.70;99.90;;;;;;5114200;28;20034;-82
2022/05/07 11:20:28;;;;;;;3.33;2.25;;;13.70;99.90;;;;;;5114181;28;20077;-82
2022/05/07 11:23:01;;;;;;;5.68;3.70;;;13.60;99.90;;;;;;5114860;28;20026;-82
2022/05/07 11:25:28;;;;;;;6.00;3.80;;;13.60;99.90;;;;;;5095524;28;20088;-82
2022/05/07 11:27:56;;;;;;;5.72;3.80;;;13.60;99.90;;;;;;5113874;28;20379;-82
2022/05/07 11:30:22;;;;;;;5.15;3.17;;;13.60;99.90;;;;;;5095531;28;20370;-82
2022/05/07 11:32:48;;;;;;;3.97;2.83;;;13.50;99.90;;;;;;5114019;28;20035;-82
2022/05/07 11:35:14;;;;;;;3.03;2.03;;;13.50;99.90;;;;;;5114248;28;20027;-83
2022/05/07 11:37:42;;;;;;;3.47;2.30;;;13.50;99.90;;;;;;5095847;28;20472;-84
2022/05/07 11:40:09;;;;;;;3.50;2.53;;;13.50;99.90;;;;;;5113823;28;20042;-84
2022/05/07 11:42:38;;;;;;;4.43;2.85;;;13.50;99.90;;;;;;5114061;28;20373;-84
2022/05/07 11:45:33;;;;;;;3.60;2.60;;;13.60;99.90;;;;;;5099483;28;20020;-84
2022/05/07 11:48:13;;;;;;;4.47;2.70;;;13.60;99.90;;;;;;5099462;28;20024;-84
2022/05/07 11:50:54;;;;;;;4.07;2.70;;;13.70;99.90;;;;;;5099497;28;20073;-84
2022/05/07 11:53:22;;;;;;;4.13;2.63;;;13.70;99.90;;;;;;5099411;28;20026;-84
2022/05/07 11:55:49;;;;;;;4.82;2.95;;;13.70;99.90;;;;;;5099404;28;20024;-84
2022/05/07 11:58:23;;;;;;;5.18;3.55;;;13.60;99.90;;;;;;5117694;28;20365;-84
2022/05/07 12:00:51;;;;;;;4.80;3.47;;;13.60;99.90;;;;;;5117766;28;20076;-84
2022/05/07 12:03:18;;;;;;;4.18;3.10;;;13.60;99.90;;;;;;5117729;28;20023;-84
2022/05/07 12:05:45;;;;;;;4.22;3.40;;;13.70;99.90;;;;;;5116927;28;20027;-84
2022/05/07 12:08:19;;;;;;;4.82;3.40;;;13.60;99.90;;;;;;5099123;28;20076;-84
2022/05/07 12:10:46;;;;;;;4.20;3.30;;;13.60;99.90;;;;;;5117572;28;20480;-84
2022/05/07 12:13:17;;;;;;;5.05;3.50;;;13.60;99.90;;;;;;5116989;28;20028;-85
2022/05/07 12:18:27;;;;;;;5.68;3.40;;;13.50;99.90;;;;;;5127795;27;20038;-84
2022/05/07 12:20:54;;;;;;;5.88;4.13;;;13.50;99.90;;;;;;5109161;28;20421;-84
2022/05/07 12:31:33;;;;;;;6.10;4.50;;;13.40;99.90;;;;;;5096924;28;20027;-84
2022/05/07 12:33:59;;;;;;;7.68;5.13;;;13.50;99.90;;;;;;5078366;28;20020;-84
2022/05/07 12:36:26;;;;;;;5.78;3.97;;;13.50;99.90;;;;;;5096372;28;20035;-84
2022/05/07 12:38:52;;;;;;;8.52;5.15;;;13.50;99.90;;;;;;5078199;28;20111;-85
2022/05/07 12:41:21;;;;;;;5.15;4.20;;;13.50;99.90;;;;;;5124232;27;20480;-85
2022/05/07 12:43:48;;;;;;;7.65;5.05;;;13.60;99.90;;;;;;5098603;28;20036;-85
2022/05/07 12:46:13;;;;;;;6.97;5.00;;;13.60;99.90;;;;;;5116558;28;20016;-85
2022/05/07 12:48:39;;;;;;;6.07;4.43;;;13.60;99.90;;;;;;5116551;28;20026;-85
2022/05/07 12:51:05;;;;;;;6.80;4.90;;;13.60;99.90;;;;;;5096435;28;20043;-85
2022/05/07 12:53:30;;;;;;;5.50;4.30;;;13.70;99.90;;;;;;5097520;28;20065;-85
2022/05/07 12:55:56;;;;;;;6.00;4.40;;;13.70;99.90;;;;;;5096099;28;20022;-86
2022/05/07 12:58:22;;;;;;;7.28;5.03;;;13.70;99.90;;;;;;5097840;28;20039;-85
2022/05/07 13:00:47;;;;;;;6.18;4.38;;;13.80;99.90;;;;;;5097961;28;20522;-85
2022/05/07 13:03:13;;;;;;;6.07;4.00;;;13.80;99.90;;;;;;5097998;28;20027;-85
2022/05/07 13:05:39;;;;;;;5.60;3.72;;;13.80;99.90;;;;;;5098039;28;20108;-85
2022/05/07 13:08:06;;;;;;;5.75;3.65;;;13.90;99.90;;;;;;5116281;28;20483;-85
2022/05/07 13:10:33;;;;;;;5.93;4.30;;;13.90;99.90;;;;;;5098056;28;20047;-85
2022/05/07 13:13:00;;;;;;;5.05;4.07;;;13.90;99.90;;;;;;5097991;28;20028;-85
2022/05/07 13:15:28;;;;;;;6.25;4.22;;;13.90;99.90;;;;;;5097919;28;20102;-85
2022/05/07 13:17:59;;;;;;;3.97;2.95;;;14.00;99.90;;;;;;5098080;28;20468;-85
2022/05/07 13:20:26;;;;;;;5.20;3.97;;;13.90;99.90;;;;;;5098198;28;20519;-85
2022/05/07 13:22:53;;;;;;;3.72;2.92;;;13.80;99.90;;;;;;5097879;28;20031;-85
2022/05/07 13:25:19;;;;;;;3.70;3.00;;;13.80;99.90;;;;;;5097714;28;20020;-85
2022/05/07 13:27:47;;;;;;;5.28;3.80;;;13.80;99.90;;;;;;5096990;28;20022;-85
2022/05/07 13:30:14;;;;;;;5.18;3.72;;;13.80;99.90;;;;;;5109549;28;20024;-85
2022/05/07 13:32:40;;;;;;;3.90;3.20;;;13.80;99.90;;;;;;5098150;28;20027;-85
2022/05/07 13:35:06;;;;;;;6.43;5.00;;;13.80;99.90;;;;;;5115769;28;20204;-85
2022/05/07 13:37:32;;;;;;;5.00;4.32;;;13.90;99.90;;;;;;5097853;28;20080;-85